sensor_id;sensor_type;location;lat;lon;timestamp;pressure;altitude;pressure_sealevel;temperature;humidity
7586;BME280;12459;42.646;23.292;2022-07-04T00:01:39;93870.56;;;23.87;64.11
7586;BME280;12459;42.646;23.292;2022-07-04T00:16:41;93875.09;;;23.70;64.90
7586;BME280;12459;42.646;23.292;2022-07-04T00:31:43;93865.69;;;21.53;72.46
7586;BME280;12459;42.646;23.292;2022-07-04T00:46:45;93862.25;;;21.67;71.19
7586;BME280;12459;42.646;23.292;2022-07-04T01:01:47;93849.72;;;22.29;69.82
7586;BME280;12459;42.646;23.292;2022-07-04T01:16:50;93851.91;;;21.72;68.52
7586;BME280;12459;42.646;23.292;2022-07-04T01:31:51;93862.88;;;22.01;68.14
7586;BME280;12459;42.646;23.292;2022-07-04T01:46:54;93858.66;;;22.29;68.95
7586;BME280;12459;42.646;23.292;2022-07-04T02:01:56;93859.47;;;22.65;66.21
7586;BME280;12459;42.646;23.292;2022-07-04T02:16:58;93862.13;;;20.90;73.53
7586;BME280;12459;42.646;23.292;2022-07-04T02:32:00;93866.94;;;20.95;72.56
7586;BME280;12459;42.646;23.292;2022-07-04T02:47:01;93872.50;;;21.73;68.76
7586;BME280;12459;42.646;23.292;2022-07-04T03:02:03;93884.13;;;20.17;72.82
7586;BME280;12459;42.646;23.292;2022-07-04T03:17:05;93886.41;;;23.02;64.87
7586;BME280;12459;42.646;23.292;2022-07-04T03:32:07;93907.88;;;20.77;70.88
7586;BME280;12459;42.646;23.292;2022-07-04T03:47:09;93890.56;;;23.93;62.37
7586;BME280;12459;42.646;23.292;2022-07-04T04:02:10;93883.56;;;24.70;59.13
7586;BME280;12459;42.646;23.292;2022-07-04T04:17:12;93881.25;;;24.94;57.00
7586;BME280;12459;42.646;23.292;2022-07-04T04:32:14;93902.44;;;26.33;52.65
7586;BME280;12459;42.646;23.292;2022-07-04T04:47:15;93908.22;;;27.35;49.04
7586;BME280;12459;42.646;23.292;2022-07-04T05:02:17;93898.34;;;28.73;45.32
7586;BME280;12459;42.646;23.292;2022-07-04T05:17:19;93904.41;;;27.55;44.72
7586;BME280;12459;42.646;23.292;2022-07-04T05:32:20;93894.47;;;28.51;42.55
7586;BME280;12459;42.646;23.292;2022-07-04T05:47:22;93905.09;;;28.72;42.66
7586;BME280;12459;42.646;23.292;2022-07-04T06:02:26;93910.22;;;29.76;38.48
7586;BME280;12459;42.646;23.292;2022-07-04T06:17:27;93905.72;;;30.54;40.58
7586;BME280;12459;42.646;23.292;2022-07-04T06:32:29;93903.69;;;28.59;41.67
7586;BME280;12459;42.646;23.292;2022-07-04T06:47:31;93912.56;;;31.17;38.75
7586;BME280;12459;42.646;23.292;2022-07-04T07:02:35;93894.84;;;29.02;42.18
7586;BME280;12459;42.646;23.292;2022-07-04T07:17:37;93892.13;;;30.88;41.12
7586;BME280;12459;42.646;23.292;2022-07-04T07:32:39;93876.41;;;30.64;39.25
7586;BME280;12459;42.646;23.292;2022-07-04T07:47:41;93876.06;;;29.74;40.15
7586;BME280;12459;42.646;23.292;2022-07-04T08:02:42;93871.72;;;31.50;36.97
7586;BME280;12459;42.646;23.292;2022-07-04T08:18:02;93869.38;;;31.67;37.26
7586;BME280;12459;42.646;23.292;2022-07-04T08:33:05;93857.69;;;32.34;36.69
7586;BME280;12459;42.646;23.292;2022-07-04T08:48:07;93852.81;;;32.01;38.66
7586;BME280;12459;42.646;23.292;2022-07-04T09:03:09;93847.72;;;31.52;40.08
7586;BME280;12459;42.646;23.292;2022-07-04T09:18:22;93841.34;;;31.44;38.93
7586;BME280;12459;42.646;23.292;2022-07-04T09:33:46;93837.13;;;32.51;38.14
7586;BME280;12459;42.646;23.292;2022-07-04T09:48:49;93822.25;;;31.80;39.96
7586;BME280;12459;42.646;23.292;2022-07-04T10:03:51;93839.22;;;31.50;41.20
7586;BME280;12459;42.646;23.292;2022-07-04T10:18:53;93829.31;;;32.28;39.06
7586;BME280;12459;42.646;23.292;2022-07-04T10:33:56;93821.03;;;33.40;37.08
7586;BME280;12459;42.646;23.292;2022-07-04T10:48:59;93812.63;;;32.83;37.56
7586;BME280;12459;42.646;23.292;2022-07-04T11:04:01;93791.41;;;33.22;37.67
7586;BME280;12459;42.646;23.292;2022-07-04T11:19:03;93785.97;;;33.09;36.48
7586;BME280;12459;42.646;23.292;2022-07-04T11:34:05;93778.09;;;33.85;33.75
7586;BME280;12459;42.646;23.292;2022-07-04T11:49:10;93763.94;;;33.11;35.05
7586;BME280;12459;42.646;23.292;2022-07-04T12:19:14;93741.09;;;32.76;38.53
7586;BME280;12459;42.646;23.292;2022-07-04T12:34:17;93723.19;;;32.77;37.17
7586;BME280;12459;42.646;23.292;2022-07-04T12:49:18;93715.34;;;32.26;38.74
7586;BME280;12459;42.646;23.292;2022-07-04T13:04:20;93706.28;;;32.75;37.98
7586;BME280;12459;42.646;23.292;2022-07-04T13:19:22;93698.72;;;32.26;39.77
7586;BME280;12459;42.646;23.292;2022-07-04T13:34:24;93674.78;;;32.23;40.25
7586;BME280;12459;42.646;23.292;2022-07-04T13:49:25;93671.53;;;31.91;40.58
7586;BME280;12459;42.646;23.292;2022-07-04T14:04:27;93660.81;;;32.78;39.62
7586;BME280;12459;42.646;23.292;2022-07-04T14:19:28;93634.66;;;32.45;39.66
7586;BME280;12459;42.646;23.292;2022-07-04T14:34:30;93631.91;;;32.24;40.50
7586;BME280;12459;42.646;23.292;2022-07-04T14:49:32;93623.44;;;32.09;40.58
7586;BME280;12459;42.646;23.292;2022-07-04T15:04:33;93621.72;;;31.64;43.18
7586;BME280;12459;42.646;23.292;2022-07-04T15:19:35;93618.13;;;31.09;43.53
7586;BME280;12459;42.646;23.292;2022-07-04T15:34:57;93606.25;;;31.69;43.46
7586;BME280;12459;42.646;23.292;2022-07-04T15:50:14;93611.91;;;30.82;44.51
7586;BME280;12459;42.646;23.292;2022-07-04T16:05:16;93616.91;;;30.31;45.96
7586;BME280;12459;42.646;23.292;2022-07-04T16:20:18;93621.44;;;29.83;48.20
7586;BME280;12459;42.646;23.292;2022-07-04T16:35:20;93626.66;;;29.86;48.35
7586;BME280;12459;42.646;23.292;2022-07-04T16:50:21;93647.66;;;29.26;49.84
7586;BME280;12459;42.646;23.292;2022-07-04T17:05:23;93635.16;;;29.00;49.23
7586;BME280;12459;42.646;23.292;2022-07-04T17:20:25;93662.53;;;28.98;49.19
7586;BME280;12459;42.646;23.292;2022-07-04T17:35:26;93661.84;;;28.19;51.90
7586;BME280;12459;42.646;23.292;2022-07-04T17:50:28;93644.41;;;28.05;51.12
7586;BME280;12459;42.646;23.292;2022-07-04T18:05:29;93650.75;;;28.30;49.36
7586;BME280;12459;42.646;23.292;2022-07-04T18:20:31;93658.47;;;27.72;49.59
7586;BME280;12459;42.646;23.292;2022-07-04T18:35:33;93664.72;;;27.72;48.75
7586;BME280;12459;42.646;23.292;2022-07-04T18:50:35;93673.53;;;27.65;48.40
7586;BME280;12459;42.646;23.292;2022-07-04T19:05:36;93699.06;;;27.65;47.32
7586;BME280;12459;42.646;23.292;2022-07-04T19:20:38;93688.91;;;27.44;46.91
7586;BME280;12459;42.646;23.292;2022-07-04T19:35:40;93686.09;;;27.55;45.53
7586;BME280;12459;42.646;23.292;2022-07-04T19:50:42;93691.38;;;27.00;46.82
7586;BME280;12459;42.646;23.292;2022-07-04T20:05:44;93702.50;;;27.30;47.11
7586;BME280;12459;42.646;23.292;2022-07-04T20:20:46;93718.00;;;26.53;51.44
7586;BME280;12459;42.646;23.292;2022-07-04T20:35:47;93711.19;;;24.83;57.77
7586;BME280;12459;42.646;23.292;2022-07-04T20:50:49;93725.50;;;26.30;52.96
7586;BME280;12459;42.646;23.292;2022-07-04T21:05:50;93734.59;;;24.04;60.55
7586;BME280;12459;42.646;23.292;2022-07-04T21:20:52;93746.28;;;24.73;58.96
7586;BME280;12459;42.646;23.292;2022-07-04T21:35:54;93744.19;;;23.42;62.30
7586;BME280;12459;42.646;23.292;2022-07-04T21:50:56;93766.53;;;22.95;62.78
7586;BME280;12459;42.646;23.292;2022-07-04T22:16:06;93762.00;;;23.32;55.32
7586;BME280;12459;42.646;23.292;2022-07-04T22:31:08;93769.16;;;23.30;53.80
7586;BME280;12459;42.646;23.292;2022-07-04T22:46:10;93781.25;;;24.47;52.99
7586;BME280;12459;42.646;23.292;2022-07-04T23:01:12;93786.06;;;22.38;59.80
7586;BME280;12459;42.646;23.292;2022-07-04T23:16:13;93775.50;;;24.13;56.54
7586;BME280;12459;42.646;23.292;2022-07-04T23:31:15;93789.84;;;22.25;62.54
7586;BME280;12459;42.646;23.292;2022-07-04T23:46:17;93783.56;;;21.37;65.59
